Terminal Aerodrome Forecast
Issued by NWS Cleveland, OH

Home | Current Version | Previous Version | Text Only | Print | Product List | Glossary On
Versions: 1 2 3 4 5 6 7 8 9 10 11 12 13 14 15 16 17 18
000
FTUS41 KCLE 300139 AAA
TAFYNG
TAF AMD
KYNG 300139Z 3002/3024 35007KT 6SM BR SCT009 OVC015
     FM300600 06010KT 2SM BR OVC015
     FM301000 10009KT 4SM BR OVC003
     FM301400 15010KT 6SM HZ OVC003
     FM301600 17010G20KT P6SM BKN050
     FM301800 20010G20KT P6SM SCT250=

USA.gov is the U.S. government's official web portal to all federal, state and local government web resources and services.